sensor_id;sensor_type;location;lat;lon;timestamp;temperature;humidity
9762;DHT22;4920;49.594;11.022;2023-12-20T00:01:32;6.20;99.90
9762;DHT22;4920;49.594;11.022;2023-12-20T00:04:01;6.20;99.90
9762;DHT22;4920;49.594;11.022;2023-12-20T00:06:31;6.20;99.90
9762;DHT22;4920;49.594;11.022;2023-12-20T00:09:00;6.10;99.90
9762;DHT22;4920;49.594;11.022;2023-12-20T00:11:30;6.10;99.90
9762;DHT22;4920;49.594;11.022;2023-12-20T00:13:59;6.00;99.90
9762;DHT22;4920;49.594;11.022;2023-12-20T00:16:28;6.00;99.90
9762;DHT22;4920;49.594;11.022;2023-12-20T00:18:57;5.90;99.90
9762;DHT22;4920;49.594;11.022;2023-12-20T00:21:26;5.90;99.90
9762;DHT22;4920;49.594;11.022;2023-12-20T00:23:55;5.90;99.90
9762;DHT22;4920;49.594;11.022;2023-12-20T00:26:23;5.90;99.90
9762;DHT22;4920;49.594;11.022;2023-12-20T00:28:54;5.90;99.90
9762;DHT22;4920;49.594;11.022;2023-12-20T00:31:23;5.90;99.90
9762;DHT22;4920;49.594;11.022;2023-12-20T00:33:52;5.90;99.90
9762;DHT22;4920;49.594;11.022;2023-12-20T00:36:22;5.90;99.90
9762;DHT22;4920;49.594;11.022;2023-12-20T00:38:51;5.80;99.90
9762;DHT22;4920;49.594;11.022;2023-12-20T00:41:20;5.80;99.90
9762;DHT22;4920;49.594;11.022;2023-12-20T00:43:49;5.80;99.90
9762;DHT22;4920;49.594;11.022;2023-12-20T00:46:19;5.80;99.90
9762;DHT22;4920;49.594;11.022;2023-12-20T00:48:48;5.80;99.90
9762;DHT22;4920;49.594;11.022;2023-12-20T00:51:17;5.80;99.90
9762;DHT22;4920;49.594;11.022;2023-12-20T00:53:46;5.80;99.90
9762;DHT22;4920;49.594;11.022;2023-12-20T00:56:17;5.80;99.90
9762;DHT22;4920;49.594;11.022;2023-12-20T00:58:45;5.80;99.90
9762;DHT22;4920;49.594;11.022;2023-12-20T01:01:15;5.80;99.90
9762;DHT22;4920;49.594;11.022;2023-12-20T01:03:46;5.70;99.90
9762;DHT22;4920;49.594;11.022;2023-12-20T01:06:15;5.70;99.90
9762;DHT22;4920;49.594;11.022;2023-12-20T01:08:44;5.70;99.90
9762;DHT22;4920;49.594;11.022;2023-12-20T01:11:13;5.70;99.90
9762;DHT22;4920;49.594;11.022;2023-12-20T01:13:42;5.70;99.90
9762;DHT22;4920;49.594;11.022;2023-12-20T01:16:11;5.70;99.90
9762;DHT22;4920;49.594;11.022;2023-12-20T01:18:40;5.60;99.90
9762;DHT22;4920;49.594;11.022;2023-12-20T01:21:11;5.50;99.90
9762;DHT22;4920;49.594;11.022;2023-12-20T01:23:40;5.50;99.90
9762;DHT22;4920;49.594;11.022;2023-12-20T01:26:09;5.50;99.90
9762;DHT22;4920;49.594;11.022;2023-12-20T01:28:38;5.50;99.90
9762;DHT22;4920;49.594;11.022;2023-12-20T01:31:08;5.50;99.90
9762;DHT22;4920;49.594;11.022;2023-12-20T01:33:37;5.40;99.90
9762;DHT22;4920;49.594;11.022;2023-12-20T01:36:06;5.40;99.90
9762;DHT22;4920;49.594;11.022;2023-12-20T01:38:37;5.40;99.90
9762;DHT22;4920;49.594;11.022;2023-12-20T01:41:06;5.30;99.90
9762;DHT22;4920;49.594;11.022;2023-12-20T01:43:35;5.30;99.90
9762;DHT22;4920;49.594;11.022;2023-12-20T01:46:17;5.30;99.90
9762;DHT22;4920;49.594;11.022;2023-12-20T01:48:46;5.30;99.90
9762;DHT22;4920;49.594;11.022;2023-12-20T01:51:15;5.30;99.90
9762;DHT22;4920;49.594;11.022;2023-12-20T01:53:46;5.30;99.90
9762;DHT22;4920;49.594;11.022;2023-12-20T01:56:16;5.20;99.90
9762;DHT22;4920;49.594;11.022;2023-12-20T01:58:46;5.20;99.90
9762;DHT22;4920;49.594;11.022;2023-12-20T02:01:16;5.20;99.90
9762;DHT22;4920;49.594;11.022;2023-12-20T02:03:46;5.20;99.90
9762;DHT22;4920;49.594;11.022;2023-12-20T02:06:15;5.20;99.90
9762;DHT22;4920;49.594;11.022;2023-12-20T02:08:46;5.10;99.90
9762;DHT22;4920;49.594;11.022;2023-12-20T02:11:15;5.10;99.90
9762;DHT22;4920;49.594;11.022;2023-12-20T02:13:43;5.10;99.90
9762;DHT22;4920;49.594;11.022;2023-12-20T02:16:12;5.10;99.90
9762;DHT22;4920;49.594;11.022;2023-12-20T02:18:42;5.00;99.90
9762;DHT22;4920;49.594;11.022;2023-12-20T02:21:12;5.00;99.90
9762;DHT22;4920;49.594;11.022;2023-12-20T02:23:42;5.00;99.90
9762;DHT22;4920;49.594;11.022;2023-12-20T02:26:12;5.00;99.90
9762;DHT22;4920;49.594;11.022;2023-12-20T02:28:41;4.90;99.90
9762;DHT22;4920;49.594;11.022;2023-12-20T02:31:10;4.90;99.90
9762;DHT22;4920;49.594;11.022;2023-12-20T02:33:39;4.90;99.90
9762;DHT22;4920;49.594;11.022;2023-12-20T02:36:09;4.90;99.90
9762;DHT22;4920;49.594;11.022;2023-12-20T02:38:38;4.90;99.90
9762;DHT22;4920;49.594;11.022;2023-12-20T02:41:09;4.90;99.90
9762;DHT22;4920;49.594;11.022;2023-12-20T02:43:38;4.80;99.90
9762;DHT22;4920;49.594;11.022;2023-12-20T02:46:07;4.80;99.90
9762;DHT22;4920;49.594;11.022;2023-12-20T02:48:35;4.80;99.90
9762;DHT22;4920;49.594;11.022;2023-12-20T02:51:05;4.80;99.90
9762;DHT22;4920;49.594;11.022;2023-12-20T02:53:34;4.80;99.90
9762;DHT22;4920;49.594;11.022;2023-12-20T02:56:03;4.80;99.90
9762;DHT22;4920;49.594;11.022;2023-12-20T02:58:34;4.70;99.90
9762;DHT22;4920;49.594;11.022;2023-12-20T03:01:03;4.70;99.90
9762;DHT22;4920;49.594;11.022;2023-12-20T03:03:32;4.70;99.90
9762;DHT22;4920;49.594;11.022;2023-12-20T03:06:01;4.70;99.90
9762;DHT22;4920;49.594;11.022;2023-12-20T03:08:30;4.70;99.90
9762;DHT22;4920;49.594;11.022;2023-12-20T03:10:59;4.70;99.90
9762;DHT22;4920;49.594;11.022;2023-12-20T03:13:28;4.70;99.90
9762;DHT22;4920;49.594;11.022;2023-12-20T03:15:58;4.60;99.90
9762;DHT22;4920;49.594;11.022;2023-12-20T03:18:27;4.60;99.90
9762;DHT22;4920;49.594;11.022;2023-12-20T03:20:56;4.60;99.90
9762;DHT22;4920;49.594;11.022;2023-12-20T03:23:25;4.60;99.90
9762;DHT22;4920;49.594;11.022;2023-12-20T03:25:54;4.50;99.90
9762;DHT22;4920;49.594;11.022;2023-12-20T03:28:23;4.50;99.90
9762;DHT22;4920;49.594;11.022;2023-12-20T03:30:52;4.50;99.90
9762;DHT22;4920;49.594;11.022;2023-12-20T03:33:23;4.50;99.90
9762;DHT22;4920;49.594;11.022;2023-12-20T03:35:52;4.50;99.90
9762;DHT22;4920;49.594;11.022;2023-12-20T03:38:21;4.50;99.90
9762;DHT22;4920;49.594;11.022;2023-12-20T03:40:51;4.50;99.90
9762;DHT22;4920;49.594;11.022;2023-12-20T03:43:20;4.50;99.90
9762;DHT22;4920;49.594;11.022;2023-12-20T03:45:49;4.50;99.90
9762;DHT22;4920;49.594;11.022;2023-12-20T03:48:19;4.50;99.90
9762;DHT22;4920;49.594;11.022;2023-12-20T03:50:49;4.50;99.90
9762;DHT22;4920;49.594;11.022;2023-12-20T03:53:19;4.50;99.90
9762;DHT22;4920;49.594;11.022;2023-12-20T03:55:47;4.50;99.90
9762;DHT22;4920;49.594;11.022;2023-12-20T03:58:16;4.40;99.90
9762;DHT22;4920;49.594;11.022;2023-12-20T04:00:45;4.40;99.90
9762;DHT22;4920;49.594;11.022;2023-12-20T04:03:15;4.50;99.90
9762;DHT22;4920;49.594;11.022;2023-12-20T04:05:43;4.40;99.90
9762;DHT22;4920;49.594;11.022;2023-12-20T04:08:14;4.40;99.90
9762;DHT22;4920;49.594;11.022;2023-12-20T04:10:43;4.40;99.90
9762;DHT22;4920;49.594;11.022;2023-12-20T04:13:12;4.40;99.90
9762;DHT22;4920;49.594;11.022;2023-12-20T04:15:41;4.40;99.90
9762;DHT22;4920;49.594;11.022;2023-12-20T04:18:10;4.30;99.90
9762;DHT22;4920;49.594;11.022;2023-12-20T04:20:39;4.40;99.90
9762;DHT22;4920;49.594;11.022;2023-12-20T04:23:08;4.40;99.90
9762;DHT22;4920;49.594;11.022;2023-12-20T04:25:38;4.40;99.90
9762;DHT22;4920;49.594;11.022;2023-12-20T04:28:07;4.40;99.90
9762;DHT22;4920;49.594;11.022;2023-12-20T04:30:36;4.40;99.90
9762;DHT22;4920;49.594;11.022;2023-12-20T04:33:05;4.40;99.90
9762;DHT22;4920;49.594;11.022;2023-12-20T04:35:34;4.40;99.90
9762;DHT22;4920;49.594;11.022;2023-12-20T04:38:03;4.40;99.90
9762;DHT22;4920;49.594;11.022;2023-12-20T04:40:32;4.40;99.90
9762;DHT22;4920;49.594;11.022;2023-12-20T04:43:03;4.40;99.90
9762;DHT22;4920;49.594;11.022;2023-12-20T04:45:32;4.40;99.90
9762;DHT22;4920;49.594;11.022;2023-12-20T04:48:01;4.30;99.90
9762;DHT22;4920;49.594;11.022;2023-12-20T04:50:31;4.30;99.90
9762;DHT22;4920;49.594;11.022;2023-12-20T04:53:01;4.40;99.90
9762;DHT22;4920;49.594;11.022;2023-12-20T04:55:29;4.30;99.90
9762;DHT22;4920;49.594;11.022;2023-12-20T04:57:59;4.30;99.90
9762;DHT22;4920;49.594;11.022;2023-12-20T05:00:29;4.30;99.90
9762;DHT22;4920;49.594;11.022;2023-12-20T05:02:58;4.40;99.90
9762;DHT22;4920;49.594;11.022;2023-12-20T05:05:27;4.40;99.90
9762;DHT22;4920;49.594;11.022;2023-12-20T05:07:56;4.40;99.90
9762;DHT22;4920;49.594;11.022;2023-12-20T05:10:26;4.40;99.90
9762;DHT22;4920;49.594;11.022;2023-12-20T05:12:55;4.40;99.90
9762;DHT22;4920;49.594;11.022;2023-12-20T05:15:24;4.40;99.90
9762;DHT22;4920;49.594;11.022;2023-12-20T05:17:54;4.40;99.90
9762;DHT22;4920;49.594;11.022;2023-12-20T05:20:24;4.40;99.90
9762;DHT22;4920;49.594;11.022;2023-12-20T05:22:53;4.40;99.90
9762;DHT22;4920;49.594;11.022;2023-12-20T05:25:22;4.40;99.90
9762;DHT22;4920;49.594;11.022;2023-12-20T05:27:51;4.30;99.90
9762;DHT22;4920;49.594;11.022;2023-12-20T05:30:20;4.40;99.90
9762;DHT22;4920;49.594;11.022;2023-12-20T05:32:48;4.40;99.90
9762;DHT22;4920;49.594;11.022;2023-12-20T05:35:20;4.40;99.90
9762;DHT22;4920;49.594;11.022;2023-12-20T05:37:51;4.40;99.90
9762;DHT22;4920;49.594;11.022;2023-12-20T05:40:20;4.40;99.90
9762;DHT22;4920;49.594;11.022;2023-12-20T05:42:49;4.40;99.90
9762;DHT22;4920;49.594;11.022;2023-12-20T05:45:18;4.40;99.90
9762;DHT22;4920;49.594;11.022;2023-12-20T05:47:46;4.40;99.90
9762;DHT22;4920;49.594;11.022;2023-12-20T05:50:15;4.50;99.90
9762;DHT22;4920;49.594;11.022;2023-12-20T05:52:46;4.50;99.90
9762;DHT22;4920;49.594;11.022;2023-12-20T05:55:15;4.50;99.90
9762;DHT22;4920;49.594;11.022;2023-12-20T05:57:44;4.50;99.90
9762;DHT22;4920;49.594;11.022;2023-12-20T06:00:14;4.50;99.90
9762;DHT22;4920;49.594;11.022;2023-12-20T06:02:44;4.50;99.90
9762;DHT22;4920;49.594;11.022;2023-12-20T06:05:13;4.50;99.90
9762;DHT22;4920;49.594;11.022;2023-12-20T06:07:42;4.50;99.90
9762;DHT22;4920;49.594;11.022;2023-12-20T06:10:14;4.50;99.90
9762;DHT22;4920;49.594;11.022;2023-12-20T06:12:43;4.50;99.90
9762;DHT22;4920;49.594;11.022;2023-12-20T06:15:12;4.50;99.90
9762;DHT22;4920;49.594;11.022;2023-12-20T06:17:41;4.60;99.90
9762;DHT22;4920;49.594;11.022;2023-12-20T06:20:11;4.60;99.90
9762;DHT22;4920;49.594;11.022;2023-12-20T06:22:40;4.60;99.90
9762;DHT22;4920;49.594;11.022;2023-12-20T06:25:09;4.60;99.90
9762;DHT22;4920;49.594;11.022;2023-12-20T06:27:40;4.60;99.90
9762;DHT22;4920;49.594;11.022;2023-12-20T06:30:10;4.60;99.90
9762;DHT22;4920;49.594;11.022;2023-12-20T06:32:39;4.60;99.90
9762;DHT22;4920;49.594;11.022;2023-12-20T06:35:09;4.60;99.90
9762;DHT22;4920;49.594;11.022;2023-12-20T06:37:38;4.60;99.90
9762;DHT22;4920;49.594;11.022;2023-12-20T06:40:11;4.70;99.90
9762;DHT22;4920;49.594;11.022;2023-12-20T06:42:46;4.60;99.90
9762;DHT22;4920;49.594;11.022;2023-12-20T06:45:31;4.70;99.90
9762;DHT22;4920;49.594;11.022;2023-12-20T06:48:00;4.70;99.90
9762;DHT22;4920;49.594;11.022;2023-12-20T06:50:29;4.70;99.90
9762;DHT22;4920;49.594;11.022;2023-12-20T06:52:58;4.70;99.90
9762;DHT22;4920;49.594;11.022;2023-12-20T06:55:35;4.80;99.90
9762;DHT22;4920;49.594;11.022;2023-12-20T06:58:06;4.80;99.90
9762;DHT22;4920;49.594;11.022;2023-12-20T07:00:36;4.90;99.90
9762;DHT22;4920;49.594;11.022;2023-12-20T07:03:05;4.80;99.90
9762;DHT22;4920;49.594;11.022;2023-12-20T07:05:34;4.80;99.90
9762;DHT22;4920;49.594;11.022;2023-12-20T07:08:03;4.80;99.90
9762;DHT22;4920;49.594;11.022;2023-12-20T07:10:32;4.80;99.90
9762;DHT22;4920;49.594;11.022;2023-12-20T07:13:02;4.90;99.90
9762;DHT22;4920;49.594;11.022;2023-12-20T07:15:35;4.90;99.90
9762;DHT22;4920;49.594;11.022;2023-12-20T07:18:04;4.90;99.90
9762;DHT22;4920;49.594;11.022;2023-12-20T07:20:34;4.90;99.90
9762;DHT22;4920;49.594;11.022;2023-12-20T07:23:03;4.90;99.90
9762;DHT22;4920;49.594;11.022;2023-12-20T07:25:32;4.90;99.90
9762;DHT22;4920;49.594;11.022;2023-12-20T07:28:02;4.90;99.90
9762;DHT22;4920;49.594;11.022;2023-12-20T07:30:32;4.90;99.90
9762;DHT22;4920;49.594;11.022;2023-12-20T07:33:01;4.90;99.90
9762;DHT22;4920;49.594;11.022;2023-12-20T07:35:30;4.90;99.90
9762;DHT22;4920;49.594;11.022;2023-12-20T07:37:59;4.90;99.90
9762;DHT22;4920;49.594;11.022;2023-12-20T07:40:29;4.90;99.90
9762;DHT22;4920;49.594;11.022;2023-12-20T07:42:58;4.90;99.90
9762;DHT22;4920;49.594;11.022;2023-12-20T07:45:27;4.90;99.90
9762;DHT22;4920;49.594;11.022;2023-12-20T07:47:58;4.90;99.90
9762;DHT22;4920;49.594;11.022;2023-12-20T07:50:27;5.00;99.90
9762;DHT22;4920;49.594;11.022;2023-12-20T07:52:56;5.00;99.90
9762;DHT22;4920;49.594;11.022;2023-12-20T07:55:27;5.00;99.90
9762;DHT22;4920;49.594;11.022;2023-12-20T07:57:57;5.00;99.90
9762;DHT22;4920;49.594;11.022;2023-12-20T08:00:27;5.10;99.90
9762;DHT22;4920;49.594;11.022;2023-12-20T08:02:57;5.10;99.90
9762;DHT22;4920;49.594;11.022;2023-12-20T08:05:26;5.20;99.90
9762;DHT22;4920;49.594;11.022;2023-12-20T08:07:55;5.20;99.90
9762;DHT22;4920;49.594;11.022;2023-12-20T08:10:24;5.30;99.90
9762;DHT22;4920;49.594;11.022;2023-12-20T08:12:54;5.40;99.90
9762;DHT22;4920;49.594;11.022;2023-12-20T08:15:23;5.40;99.90
9762;DHT22;4920;49.594;11.022;2023-12-20T08:17:52;5.40;99.90
9762;DHT22;4920;49.594;11.022;2023-12-20T08:20:23;5.50;99.90
9762;DHT22;4920;49.594;11.022;2023-12-20T08:23:06;5.50;99.90
9762;DHT22;4920;49.594;11.022;2023-12-20T08:25:35;5.50;99.90
9762;DHT22;4920;49.594;11.022;2023-12-20T08:28:04;5.50;99.90
9762;DHT22;4920;49.594;11.022;2023-12-20T08:30:33;5.60;99.90
9762;DHT22;4920;49.594;11.022;2023-12-20T08:33:03;5.60;99.90
9762;DHT22;4920;49.594;11.022;2023-12-20T08:35:33;5.50;99.90
9762;DHT22;4920;49.594;11.022;2023-12-20T08:38:03;5.50;99.90
9762;DHT22;4920;49.594;11.022;2023-12-20T08:40:32;5.50;99.90
9762;DHT22;4920;49.594;11.022;2023-12-20T08:43:01;5.40;99.90
9762;DHT22;4920;49.594;11.022;2023-12-20T08:45:31;5.40;99.90
9762;DHT22;4920;49.594;11.022;2023-12-20T08:48:00;5.40;99.90
9762;DHT22;4920;49.594;11.022;2023-12-20T08:50:33;5.40;99.90
9762;DHT22;4920;49.594;11.022;2023-12-20T08:53:03;5.30;99.90
9762;DHT22;4920;49.594;11.022;2023-12-20T08:55:32;5.40;99.90
9762;DHT22;4920;49.594;11.022;2023-12-20T08:58:01;5.40;99.90
9762;DHT22;4920;49.594;11.022;2023-12-20T09:00:30;5.40;99.90
9762;DHT22;4920;49.594;11.022;2023-12-20T09:03:00;5.30;99.90
9762;DHT22;4920;49.594;11.022;2023-12-20T09:05:29;5.30;99.90
9762;DHT22;4920;49.594;11.022;2023-12-20T09:08:00;5.30;99.90
9762;DHT22;4920;49.594;11.022;2023-12-20T09:10:29;5.40;99.90
9762;DHT22;4920;49.594;11.022;2023-12-20T09:12:58;5.50;99.90
9762;DHT22;4920;49.594;11.022;2023-12-20T09:15:27;5.50;99.90
9762;DHT22;4920;49.594;11.022;2023-12-20T09:18:02;5.60;99.90
9762;DHT22;4920;49.594;11.022;2023-12-20T09:20:31;5.70;99.90
9762;DHT22;4920;49.594;11.022;2023-12-20T09:23:02;5.80;99.90
9762;DHT22;4920;49.594;11.022;2023-12-20T09:25:31;5.80;99.90
9762;DHT22;4920;49.594;11.022;2023-12-20T09:28:01;5.90;99.90
9762;DHT22;4920;49.594;11.022;2023-12-20T09:30:30;6.00;99.90
9762;DHT22;4920;49.594;11.022;2023-12-20T09:32:59;6.00;99.90
9762;DHT22;4920;49.594;11.022;2023-12-20T09:35:28;6.00;99.90
9762;DHT22;4920;49.594;11.022;2023-12-20T09:37:57;6.20;99.90
9762;DHT22;4920;49.594;11.022;2023-12-20T09:40:28;6.30;99.90
9762;DHT22;4920;49.594;11.022;2023-12-20T09:42:58;6.40;99.90
9762;DHT22;4920;49.594;11.022;2023-12-20T09:45:32;6.60;99.90
9762;DHT22;4920;49.594;11.022;2023-12-20T09:48:01;6.80;99.90
9762;DHT22;4920;49.594;11.022;2023-12-20T09:50:32;7.00;99.90
9762;DHT22;4920;49.594;11.022;2023-12-20T09:53:02;7.20;99.90
9762;DHT22;4920;49.594;11.022;2023-12-20T09:55:34;7.40;99.90
9762;DHT22;4920;49.594;11.022;2023-12-20T09:58:04;7.40;99.90
9762;DHT22;4920;49.594;11.022;2023-12-20T10:00:35;7.30;99.90
9762;DHT22;4920;49.594;11.022;2023-12-20T10:03:06;7.40;99.90
9762;DHT22;4920;49.594;11.022;2023-12-20T10:05:35;7.40;99.90
9762;DHT22;4920;49.594;11.022;2023-12-20T10:08:05;7.40;99.90
9762;DHT22;4920;49.594;11.022;2023-12-20T10:10:36;7.40;99.90
9762;DHT22;4920;49.594;11.022;2023-12-20T10:13:15;7.30;99.90
9762;DHT22;4920;49.594;11.022;2023-12-20T10:15:45;7.30;99.90
9762;DHT22;4920;49.594;11.022;2023-12-20T10:18:15;7.30;99.90
9762;DHT22;4920;49.594;11.022;2023-12-20T10:20:45;7.30;99.90
9762;DHT22;4920;49.594;11.022;2023-12-20T10:23:15;7.30;99.90
9762;DHT22;4920;49.594;11.022;2023-12-20T10:25:55;7.40;99.90
9762;DHT22;4920;49.594;11.022;2023-12-20T10:28:25;7.40;99.90
9762;DHT22;4920;49.594;11.022;2023-12-20T10:30:55;7.30;99.90
9762;DHT22;4920;49.594;11.022;2023-12-20T10:33:25;7.30;99.90
9762;DHT22;4920;49.594;11.022;2023-12-20T10:35:56;7.20;99.90
9762;DHT22;4920;49.594;11.022;2023-12-20T10:38:25;7.20;99.90
9762;DHT22;4920;49.594;11.022;2023-12-20T10:40:58;7.10;99.90
9762;DHT22;4920;49.594;11.022;2023-12-20T10:43:28;7.10;99.90
9762;DHT22;4920;49.594;11.022;2023-12-20T10:45:59;7.10;99.90
9762;DHT22;4920;49.594;11.022;2023-12-20T10:48:30;7.20;99.90
9762;DHT22;4920;49.594;11.022;2023-12-20T10:51:01;7.30;99.90
9762;DHT22;4920;49.594;11.022;2023-12-20T10:53:30;7.30;99.90
9762;DHT22;4920;49.594;11.022;2023-12-20T10:56:03;7.30;99.90
9762;DHT22;4920;49.594;11.022;2023-12-20T10:58:32;7.30;99.90
9762;DHT22;4920;49.594;11.022;2023-12-20T11:01:02;7.30;99.90
9762;DHT22;4920;49.594;11.022;2023-12-20T11:03:35;7.40;99.90
9762;DHT22;4920;49.594;11.022;2023-12-20T11:06:10;7.50;99.90
9762;DHT22;4920;49.594;11.022;2023-12-20T11:08:49;7.70;99.90
9762;DHT22;4920;49.594;11.022;2023-12-20T11:11:26;7.80;99.90
9762;DHT22;4920;49.594;11.022;2023-12-20T11:14:00;7.80;99.90
9762;DHT22;4920;49.594;11.022;2023-12-20T11:16:31;7.80;99.90
9762;DHT22;4920;49.594;11.022;2023-12-20T11:19:14;7.70;99.90
9762;DHT22;4920;49.594;11.022;2023-12-20T11:21:46;7.80;99.90
9762;DHT22;4920;49.594;11.022;2023-12-20T11:24:16;7.80;99.90
9762;DHT22;4920;49.594;11.022;2023-12-20T11:26:48;7.70;99.90
9762;DHT22;4920;49.594;11.022;2023-12-20T11:29:31;7.70;99.90
9762;DHT22;4920;49.594;11.022;2023-12-20T11:32:02;7.70;99.90
9762;DHT22;4920;49.594;11.022;2023-12-20T11:34:36;7.60;99.90
9762;DHT22;4920;49.594;11.022;2023-12-20T11:37:05;7.50;99.90
9762;DHT22;4920;49.594;11.022;2023-12-20T11:39:34;7.50;99.90
9762;DHT22;4920;49.594;11.022;2023-12-20T11:42:10;7.40;99.90
9762;DHT22;4920;49.594;11.022;2023-12-20T11:44:39;7.40;99.90
9762;DHT22;4920;49.594;11.022;2023-12-20T11:47:08;7.40;99.90
9762;DHT22;4920;49.594;11.022;2023-12-20T11:49:40;7.40;99.90
9762;DHT22;4920;49.594;11.022;2023-12-20T11:52:11;7.40;99.90
9762;DHT22;4920;49.594;11.022;2023-12-20T11:54:40;7.50;99.90
9762;DHT22;4920;49.594;11.022;2023-12-20T11:57:10;7.50;99.90
9762;DHT22;4920;49.594;11.022;2023-12-20T11:59:40;7.60;99.90
9762;DHT22;4920;49.594;11.022;2023-12-20T12:02:11;7.60;99.90
9762;DHT22;4920;49.594;11.022;2023-12-20T12:04:41;7.60;99.90
9762;DHT22;4920;49.594;11.022;2023-12-20T12:07:10;7.50;99.90
9762;DHT22;4920;49.594;11.022;2023-12-20T12:09:39;7.50;99.90
9762;DHT22;4920;49.594;11.022;2023-12-20T12:12:10;7.40;99.90
9762;DHT22;4920;49.594;11.022;2023-12-20T12:14:40;7.40;99.90
9762;DHT22;4920;49.594;11.022;2023-12-20T12:17:13;7.40;99.90
9762;DHT22;4920;49.594;11.022;2023-12-20T12:19:43;7.40;99.90
9762;DHT22;4920;49.594;11.022;2023-12-20T12:22:13;7.40;99.90
9762;DHT22;4920;49.594;11.022;2023-12-20T12:24:45;7.40;99.90
9762;DHT22;4920;49.594;11.022;2023-12-20T12:27:16;7.40;99.90
9762;DHT22;4920;49.594;11.022;2023-12-20T12:30:00;7.40;99.90
9762;DHT22;4920;49.594;11.022;2023-12-20T12:32:31;7.40;99.90
9762;DHT22;4920;49.594;11.022;2023-12-20T12:35:03;7.40;99.90
9762;DHT22;4920;49.594;11.022;2023-12-20T12:37:34;7.30;99.90
9762;DHT22;4920;49.594;11.022;2023-12-20T12:40:04;7.30;99.90
9762;DHT22;4920;49.594;11.022;2023-12-20T12:42:35;7.30;99.90
9762;DHT22;4920;49.594;11.022;2023-12-20T12:45:06;7.20;99.90
9762;DHT22;4920;49.594;11.022;2023-12-20T12:47:35;7.20;99.90
9762;DHT22;4920;49.594;11.022;2023-12-20T12:50:05;7.10;99.90
9762;DHT22;4920;49.594;11.022;2023-12-20T12:52:34;7.10;99.90
9762;DHT22;4920;49.594;11.022;2023-12-20T12:55:05;7.00;99.90
9762;DHT22;4920;49.594;11.022;2023-12-20T12:57:35;7.00;99.90
9762;DHT22;4920;49.594;11.022;2023-12-20T13:00:06;7.00;99.90
9762;DHT22;4920;49.594;11.022;2023-12-20T13:02:36;7.10;99.90
9762;DHT22;4920;49.594;11.022;2023-12-20T13:05:09;7.10;99.90
9762;DHT22;4920;49.594;11.022;2023-12-20T13:07:38;7.10;99.90
9762;DHT22;4920;49.594;11.022;2023-12-20T13:10:08;7.10;99.90
9762;DHT22;4920;49.594;11.022;2023-12-20T13:12:39;7.00;99.90
9762;DHT22;4920;49.594;11.022;2023-12-20T13:15:09;7.00;99.90
9762;DHT22;4920;49.594;11.022;2023-12-20T13:17:38;6.80;99.90
9762;DHT22;4920;49.594;11.022;2023-12-20T13:20:08;6.70;99.90
9762;DHT22;4920;49.594;11.022;2023-12-20T13:22:37;6.50;99.90
9762;DHT22;4920;49.594;11.022;2023-12-20T13:25:07;6.50;99.90
9762;DHT22;4920;49.594;11.022;2023-12-20T13:27:36;6.40;99.90
9762;DHT22;4920;49.594;11.022;2023-12-20T13:30:07;6.40;99.90
9762;DHT22;4920;49.594;11.022;2023-12-20T13:32:36;6.40;99.90
9762;DHT22;4920;49.594;11.022;2023-12-20T13:35:07;6.30;99.90
9762;DHT22;4920;49.594;11.022;2023-12-20T13:37:36;6.20;99.90
9762;DHT22;4920;49.594;11.022;2023-12-20T13:40:06;6.20;99.90
9762;DHT22;4920;49.594;11.022;2023-12-20T13:42:35;6.30;99.90
9762;DHT22;4920;49.594;11.022;2023-12-20T13:45:07;6.30;99.90
9762;DHT22;4920;49.594;11.022;2023-12-20T13:47:36;6.30;99.90
9762;DHT22;4920;49.594;11.022;2023-12-20T13:50:06;6.30;99.90
9762;DHT22;4920;49.594;11.022;2023-12-20T13:52:35;6.30;99.90
9762;DHT22;4920;49.594;11.022;2023-12-20T13:55:06;6.30;99.90
9762;DHT22;4920;49.594;11.022;2023-12-20T13:57:36;6.30;99.90
9762;DHT22;4920;49.594;11.022;2023-12-20T14:00:13;6.30;99.90
9762;DHT22;4920;49.594;11.022;2023-12-20T14:02:43;6.30;99.90
9762;DHT22;4920;49.594;11.022;2023-12-20T14:05:13;6.30;99.90
9762;DHT22;4920;49.594;11.022;2023-12-20T14:07:46;6.30;99.90
9762;DHT22;4920;49.594;11.022;2023-12-20T14:10:16;6.30;99.90
9762;DHT22;4920;49.594;11.022;2023-12-20T14:12:45;6.30;99.90
9762;DHT22;4920;49.594;11.022;2023-12-20T14:15:15;6.30;99.90
9762;DHT22;4920;49.594;11.022;2023-12-20T14:17:44;6.30;99.90
9762;DHT22;4920;49.594;11.022;2023-12-20T14:20:14;6.30;99.90
9762;DHT22;4920;49.594;11.022;2023-12-20T14:22:43;6.30;99.90
9762;DHT22;4920;49.594;11.022;2023-12-20T14:25:14;6.20;99.90
9762;DHT22;4920;49.594;11.022;2023-12-20T14:27:43;6.30;99.90
9762;DHT22;4920;49.594;11.022;2023-12-20T14:30:14;6.30;99.90
9762;DHT22;4920;49.594;11.022;2023-12-20T14:32:44;6.30;99.90
9762;DHT22;4920;49.594;11.022;2023-12-20T14:35:15;6.30;99.90
9762;DHT22;4920;49.594;11.022;2023-12-20T14:37:44;6.30;99.90
9762;DHT22;4920;49.594;11.022;2023-12-20T14:40:13;6.30;99.90
9762;DHT22;4920;49.594;11.022;2023-12-20T14:42:44;6.30;99.90
9762;DHT22;4920;49.594;11.022;2023-12-20T14:45:17;6.30;99.90
9762;DHT22;4920;49.594;11.022;2023-12-20T14:47:47;6.30;99.90
9762;DHT22;4920;49.594;11.022;2023-12-20T14:50:17;6.30;99.90
9762;DHT22;4920;49.594;11.022;2023-12-20T14:52:46;6.20;99.90
9762;DHT22;4920;49.594;11.022;2023-12-20T14:55:15;6.20;99.90
9762;DHT22;4920;49.594;11.022;2023-12-20T14:57:45;6.20;99.90
9762;DHT22;4920;49.594;11.022;2023-12-20T15:00:16;6.10;99.90
9762;DHT22;4920;49.594;11.022;2023-12-20T15:02:46;6.10;99.90
9762;DHT22;4920;49.594;11.022;2023-12-20T15:05:15;6.10;99.90
9762;DHT22;4920;49.594;11.022;2023-12-20T15:07:45;6.00;99.90
9762;DHT22;4920;49.594;11.022;2023-12-20T15:10:15;6.00;99.90
9762;DHT22;4920;49.594;11.022;2023-12-20T15:12:45;5.90;99.90
9762;DHT22;4920;49.594;11.022;2023-12-20T15:15:16;5.90;99.90
9762;DHT22;4920;49.594;11.022;2023-12-20T15:17:45;5.90;99.90
9762;DHT22;4920;49.594;11.022;2023-12-20T15:20:14;5.80;99.90
9762;DHT22;4920;49.594;11.022;2023-12-20T15:22:43;5.80;99.90
9762;DHT22;4920;49.594;11.022;2023-12-20T15:25:13;5.80;99.90
9762;DHT22;4920;49.594;11.022;2023-12-20T15:27:49;5.70;99.90
9762;DHT22;4920;49.594;11.022;2023-12-20T15:30:22;5.80;99.90
9762;DHT22;4920;49.594;11.022;2023-12-20T15:32:52;5.70;99.90
9762;DHT22;4920;49.594;11.022;2023-12-20T15:35:21;5.70;99.90
9762;DHT22;4920;49.594;11.022;2023-12-20T15:37:50;5.70;99.90
9762;DHT22;4920;49.594;11.022;2023-12-20T15:40:19;5.70;99.90
9762;DHT22;4920;49.594;11.022;2023-12-20T15:42:48;5.70;99.90
9762;DHT22;4920;49.594;11.022;2023-12-20T15:45:17;5.70;99.90
9762;DHT22;4920;49.594;11.022;2023-12-20T15:47:47;5.70;99.90
9762;DHT22;4920;49.594;11.022;2023-12-20T15:50:17;5.70;99.90
9762;DHT22;4920;49.594;11.022;2023-12-20T15:52:46;5.70;99.90
9762;DHT22;4920;49.594;11.022;2023-12-20T15:55:15;5.70;99.90
9762;DHT22;4920;49.594;11.022;2023-12-20T15:57:44;5.70;99.90
9762;DHT22;4920;49.594;11.022;2023-12-20T16:00:21;5.70;99.90
9762;DHT22;4920;49.594;11.022;2023-12-20T16:02:52;5.70;99.90
9762;DHT22;4920;49.594;11.022;2023-12-20T16:05:21;5.70;99.90
9762;DHT22;4920;49.594;11.022;2023-12-20T16:07:50;5.70;99.90
9762;DHT22;4920;49.594;11.022;2023-12-20T16:10:20;5.70;99.90
9762;DHT22;4920;49.594;11.022;2023-12-20T16:12:49;5.70;99.90
9762;DHT22;4920;49.594;11.022;2023-12-20T16:15:18;5.70;99.90
9762;DHT22;4920;49.594;11.022;2023-12-20T16:17:46;5.70;99.90
9762;DHT22;4920;49.594;11.022;2023-12-20T16:20:18;5.70;99.90